Time;durP1;ratioP1;P1;durP2;ratioP2;P2;SDS_P1;SDS_P2;PMS_P1;PMS_P2;Temp;Humidity;BMP_temperature;BMP_pressure;BME280_temperature;BME280_humidity;BME280_pressure;Samples;Min_cycle;Max_cycle;Signal;HPM_P1;HPM_P2
2022/06/12 00:00:19;;;;;;;5.03;2.10;;;;;;;19.96;100.00;98417.38;4883673;29;20205;-94
2022/06/12 00:10:41;;;;;;;3.93;2.10;;;;;;;19.99;99.67;98401.97;4734701;30;20332;-92
2022/06/12 00:24:22;;;;;;;3.77;1.93;;;;;;;19.82;100.00;98408.16;4632085;31;20289;-93
2022/06/12 00:27:39;;;;;;;4.50;1.97;;;;;;;19.96;100.00;98412.91;4655373;30;20219;-93
2022/06/12 00:30:54;;;;;;;3.60;2.10;;;;;;;19.93;100.00;98402.56;4631253;30;20221;-94
2022/06/12 00:34:05;;;;;;;;;;;;;;;;;;;;;
2022/06/12 00:37:09;;;;;;;3.20;1.67;;;;;;;20.19;98.35;98403.41;4630759;31;20573;-94
2022/06/12 00:50:35;;;;;;;3.13;1.47;;;;;;;20.17;98.31;98413.38;3888998;29;25605720;-93
2022/06/12 03:43:33;;;;;;;;;;;;;;;;;;;;;
2022/06/12 04:36:10;;;;;;;10.83;2.50;;;;;;;20.24;99.98;98450.84;5281263;23;20246;-95
2022/06/12 04:38:53;;;;;;;3.80;1.67;;;;;;;20.14;100.00;98450.09;4885499;29;20211;-94
2022/06/12 04:41:47;;;;;;;4.33;2.13;;;;;;;20.03;100.00;98459.16;4884899;29;20195;-95
2022/06/12 04:47:56;;;;;;;4.27;2.20;;;;;;;20.13;100.00;98457.22;4842980;29;20663;-95
2022/06/12 04:50:24;;;;;;;5.33;2.20;;;;;;;20.22;100.00;98456.31;4788470;30;20207;-93
2022/06/12 04:52:50;;;;;;;2.87;1.40;;;;;;;20.14;100.00;98466.06;4824317;29;20213;-93
2022/06/12 04:55:16;;;;;;;2.70;1.33;;;;;;;19.88;100.00;98467.88;4842779;29;20219;-92
2022/06/12 04:57:43;;;;;;;3.07;1.73;;;;;;;19.87;100.00;98464.38;4846933;29;20281;-93
2022/06/12 05:00:11;;;;;;;3.43;1.50;;;;;;;19.93;100.00;98465.56;4899460;29;20201;-94
2022/06/12 05:02:59;;;;;;;3.03;1.63;;;;;;;20.04;100.00;98466.16;4901268;29;20183;-93
2022/06/12 05:05:35;;;;;;;;;;;;;;;;;;;;;
2022/06/12 10:25:32;;;;;;;;;;;;;;;;;;;;;
2022/06/12 10:29:07;;;;;;;3.17;1.63;;;;;;;23.12;86.43;98553.66;4733435;30;20219;-93
2022/06/12 10:32:42;;;;;;;4.33;1.60;;;;;;;22.97;87.42;98550.88;4769242;30;20556;-93
2022/06/12 10:35:45;;;;;;;3.00;1.70;;;;;;;22.71;89.66;98546.78;4731918;30;20297;-90
2022/06/12 10:38:43;;;;;;;4.30;1.90;;;;;;;22.89;89.08;98536.72;4733589;30;20640;-91
2022/06/12 10:41:54;;;;;;;3.57;1.80;;;;;;;23.06;91.88;98525.78;4733176;30;20209;-93
2022/06/12 10:44:58;;;;;;;4.70;2.60;;;;;;;23.17;91.01;98533.41;4735731;30;20751;-90
2022/06/12 10:47:45;;;;;;;3.77;2.27;;;;;;;22.98;89.82;98523.13;4810448;29;20751;-91
2022/06/12 10:51:04;;;;;;;9.40;2.27;;;;;;;23.13;89.94;98524.09;4852570;29;20232;-92
2022/06/12 10:54:16;;;;;;;3.27;1.63;;;;;;;23.22;87.98;98531.03;4819990;29;20753;-93
2022/06/12 11:07:44;;;;;;;3.83;2.07;;;;;;;22.83;87.31;98526.72;4794310;29;20202;-94
2022/06/12 11:24:27;;;;;;;4.20;2.53;;;;;;;23.74;84.62;98517.06;4783167;29;20234;-90
2022/06/12 11:27:47;;;;;;;3.87;1.87;;;;;;;23.53;84.00;98517.69;4795689;29;20210;-93
2022/06/12 11:33:38;;;;;;;3.17;1.57;;;;;;;23.80;83.48;98517.16;4846302;29;20195;-91
2022/06/12 11:40:09;;;;;;;4.13;1.93;;;;;;;23.79;84.40;98517.34;4841664;29;20253;-89
2022/06/12 11:50:01;;;;;;;;;;;;;;;;;;;;;
2022/06/12 11:52:50;;;;;;;3.37;1.77;;;;;;;24.60;79.23;98503.22;4838512;29;20643;-95
2022/06/12 11:59:20;;;;;;;2.73;1.37;;;;;;;24.84;75.89;98493.06;4865159;29;20674;-95
2022/06/12 12:02:04;;;;;;;3.30;1.57;;;;;;;24.77;75.17;98497.50;4850535;29;20184;-93
2022/06/12 12:05:23;;;;;;;6.03;1.90;;;;;;;24.65;74.30;98504.34;4848595;29;20180;-93
2022/06/12 12:12:46;;;;;;;3.50;1.40;;;;;;;24.32;76.66;98497.66;4826339;29;20204;-91
2022/06/12 12:19:05;;;;;;;4.07;1.63;;;;;;;24.51;75.94;98507.00;4754275;30;20578;-94
2022/06/12 12:22:19;;;;;;;;;;;;;;;;;;;;;
2022/06/12 12:26:02;;;;;;;2.50;1.37;;;;;;;24.88;75.72;98505.09;4718471;30;20294;-93
2022/06/12 12:33:10;;;;;;;;;;;;;;;;;;;;;
2022/06/12 12:50:32;;;;;;;2.87;1.40;;;;;;;24.61;75.26;98478.06;4637071;30;20293;-91
2022/06/12 12:53:52;;;;;;;5.60;1.90;;;;;;;24.54;75.98;98478.00;4601680;31;20202;-91
2022/06/12 12:57:05;;;;;;;;;;;;;;;;;;;;;
2022/06/12 13:03:06;;;;;;;5.47;2.63;;;;;;;25.27;73.70;98467.19;4615501;31;20200;-93
2022/06/12 13:06:12;;;;;;;2.80;1.50;;;;;;;25.68;71.24;98467.47;4631984;31;20696;-92
2022/06/12 13:09:25;;;;;;;3.75;1.70;;;;;;;25.67;70.99;98463.09;4659567;30;20216;-92
2022/06/12 13:12:30;;;;;;;3.63;1.70;;;;;;;25.79;68.59;98460.72;4651217;30;20286;-93
2022/06/12 13:15:09;;;;;;;;;;;;;;;;;;;;;
2022/06/12 13:21:32;;;;;;;2.40;1.20;;;;;;;26.06;68.33;98457.22;4699368;30;20360;-92
2022/06/12 13:24:58;;;;;;;;;;;;;;;;;;;;;
2022/06/12 13:28:28;;;;;;;;;;;;;;;;;;;;;
2022/06/12 13:34:32;;;;;;;1.70;0.93;;;;;;;25.70;63.74;98470.78;4809764;29;20190;-91
2022/06/12 13:37:14;;;;;;;3.38;1.38;;;;;;;25.68;64.31;98464.78;4789032;29;20187;-92
2022/06/12 13:40:37;;;;;;;;;;;;;;;;;;;;;
2022/06/12 13:44:17;;;;;;;;;;;;;;;;;;;;;
2022/06/12 13:47:40;;;;;;;2.38;1.10;;;;;;;25.20;65.33;98462.78;4768049;30;20330;-93
2022/06/12 13:50:57;;;;;;;3.33;1.60;;;;;;;25.24;66.32;98466.72;4731239;30;20315;-91
2022/06/12 13:54:04;;;;;;;3.10;1.40;;;;;;;25.25;65.69;98460.38;4751785;30;20200;-92
2022/06/12 13:56:49;;;;;;;2.33;1.13;;;;;;;25.22;65.60;98464.25;4732935;30;20215;-96
2022/06/12 13:59:44;;;;;;;2.67;1.30;;;;;;;25.43;66.39;98461.59;4805076;29;20195;-91
2022/06/12 14:06:05;;;;;;;2.53;1.13;;;;;;;25.59;65.02;98449.81;4804762;29;20783;-92
2022/06/12 14:09:11;;;;;;;4.45;1.80;;;;;;;25.76;65.26;98450.38;4844276;29;20207;-93
2022/06/12 14:12:11;;;;;;;5.57;1.80;;;;;;;25.99;64.15;98446.44;4858040;29;20211;-94
2022/06/12 14:15:28;;;;;;;2.83;1.52;;;;;;;25.96;62.48;98443.31;4801264;29;20202;-94
2022/06/12 14:18:49;;;;;;;4.70;1.83;;;;;;;26.00;62.63;98442.72;4794731;29;20206;-91
2022/06/12 14:21:59;;;;;;;4.90;2.03;;;;;;;25.72;63.00;98449.94;4729216;30;20217;-89
2022/06/12 14:24:34;;;;;;;3.10;1.40;;;;;;;25.96;64.58;98444.16;4715604;30;20716;-93
2022/06/12 14:27:36;;;;;;;2.28;1.40;;;;;;;26.37;64.78;98470.28;4732482;30;20227;-93
2022/06/12 14:30:34;;;;;;;3.63;1.48;;;;;;;26.20;63.58;98469.78;4733118;30;20243;-93
2022/06/12 14:37:10;;;;;;;3.88;1.35;;;;;;;26.01;62.19;98481.16;4733793;30;20313;-93
2022/06/12 14:40:16;;;;;;;2.72;1.33;;;;;;;25.68;63.43;98496.16;4722280;30;20229;-92
2022/06/12 14:42:42;;;;;;;2.47;1.30;;;;;;;25.70;63.23;98484.19;4709402;30;20213;-92
2022/06/12 14:51:35;;;;;;;2.70;1.10;;;;;;;25.40;66.05;98478.06;4734181;30;20188;-92
2022/06/12 15:01:18;;;;;;;1.92;1.13;;;;;;;25.33;65.76;98479.88;4789730;30;20198;-91
2022/06/12 15:03:48;;;;;;;3.03;1.65;;;;;;;25.55;65.79;98472.69;4785133;30;20198;-92
2022/06/12 15:16:26;;;;;;;2.88;1.40;;;;;;;25.45;66.27;98461.38;4801102;29;20197;-91
2022/06/12 15:19:44;;;;;;;2.45;1.30;;;;;;;25.49;66.62;98465.41;4790387;30;20203;-92
2022/06/12 15:22:24;;;;;;;2.78;1.15;;;;;;;25.38;67.61;98466.69;4771374;30;20208;-93
2022/06/12 15:31:48;;;;;;;2.73;1.43;;;;;;;25.05;69.51;98474.38;4827828;29;20176;-91
2022/06/12 15:42:06;;;;;;;;;;;;;;;;;;;;;
2022/06/12 15:44:37;;;;;;;2.73;1.33;;;;;;;25.15;69.87;98489.34;4744332;30;20211;-91
2022/06/12 15:48:02;;;;;;;2.70;1.60;;;;;;;25.14;69.86;98491.19;4771240;30;20291;-91
2022/06/12 15:50:45;;;;;;;;;;;;;;;;;;;;;
2022/06/12 15:53:34;;;;;;;2.50;1.20;;;;;;;25.02;70.41;98490.84;4753409;30;20210;-93
2022/06/12 15:59:50;;;;;;;6.27;1.30;;;;;;;24.96;71.51;98498.81;4699162;30;20268;-92
2022/06/12 16:02:53;;;;;;;2.17;1.27;;;;;;;25.07;71.25;98500.19;4720585;30;20209;-91
2022/06/12 16:18:03;;;;;;;3.30;1.73;;;;;;;24.75;71.86;98526.34;4753080;30;20197;-93
2022/06/12 16:20:48;;;;;;;3.33;1.77;;;;;;;24.91;71.16;98528.03;4736184;30;20613;-91
2022/06/12 16:24:02;;;;;;;2.83;1.63;;;;;;;24.91;70.75;98520.81;4735653;30;20197;-92
2022/06/12 16:29:54;;;;;;;3.27;1.63;;;;;;;24.67;71.94;98526.44;4755453;30;20265;-92
2022/06/12 16:33:12;;;;;;;3.27;1.70;;;;;;;24.68;71.77;98524.59;4771473;30;20203;-93
2022/06/12 16:36:28;;;;;;;;;;;;;;;;;;;;;
2022/06/12 16:40:45;;;;;;;;;;;;;;;;;;;;;
2022/06/12 16:43:17;;;;;;;;;;;;;;;;;;;;;
2022/06/12 16:49:37;;;;;;;3.73;1.37;;;;;;;24.49;73.84;98515.22;4720567;30;20614;-94
2022/06/12 16:52:54;;;;;;;;;;;;;;;;;;;;;
2022/06/12 16:56:10;;;;;;;;;;;;;;;;;;;;;
2022/06/12 16:58:57;;;;;;;3.20;1.90;;;;;;;24.43;70.32;98538.22;4711859;30;20219;-91
2022/06/12 17:01:51;;;;;;;2.57;1.40;;;;;;;24.48;69.01;98543.03;4817873;29;20622;-91
2022/06/12 17:04:22;;;;;;;3.00;1.70;;;;;;;24.50;68.51;98538.34;4808317;29;20189;-92
2022/06/12 17:07:38;;;;;;;;;;;;;;;;;;;;;
2022/06/12 17:10:15;;;;;;;3.47;1.60;;;;;;;24.41;69.98;98542.94;4805695;29;20696;-91
2022/06/12 17:22:43;;;;;;;3.33;2.00;;;;;;;24.17;74.08;98553.03;4788317;30;20240;-92
2022/06/12 17:25:40;;;;;;;4.73;2.30;;;;;;;23.95;75.36;98543.97;4802291;29;20202;-91
2022/06/12 17:29:08;;;;;;;4.37;2.27;;;;;;;24.01;75.85;98547.78;4778756;29;20293;-93
2022/06/12 17:32:36;;;;;;;;;;;;;;;;;;;;;
2022/06/12 17:35:06;;;;;;;3.00;1.60;;;;;;;23.76;77.41;98561.38;4769320;30;20378;-92
2022/06/12 17:45:42;;;;;;;;;;;;;;;;;;;;;
2022/06/12 17:48:31;;;;;;;5.17;1.67;;;;;;;23.53;74.87;98592.59;4751521;30;20670;-92
2022/06/12 17:51:30;;;;;;;7.43;2.47;;;;;;;23.73;73.83;98593.84;4716473;30;20214;-92
2022/06/12 17:55:34;;;;;;;9.13;2.27;;;;;;;23.59;74.00;98599.94;4752037;30;20196;-92
2022/06/12 18:01:09;;;;;;;3.70;1.57;;;;;;;23.56;72.38;98610.97;4720745;30;20296;-92
2022/06/12 18:04:44;;;;;;;;;;;;;;;;;;;;;
2022/06/12 18:20:54;;;;;;;3.40;1.50;;;;;;;23.47;70.81;98651.34;4805234;29;20206;-91
2022/06/12 18:23:49;;;;;;;2.70;1.30;;;;;;;23.67;70.12;98656.09;4799392;29;20208;-93
2022/06/12 18:27:10;;;;;;;;;;;;;;;;;;;;;
2022/06/12 18:30:01;;;;;;;;;;;;;;;;;;;;;
2022/06/12 18:36:00;;;;;;;;;;;;;;;;;;;;;
2022/06/12 18:38:26;;;;;;;2.47;1.20;;;;;;;22.99;73.12;98662.97;4808629;29;20182;-91
2022/06/12 18:45:38;;;;;;;2.03;0.93;;;;;;;23.27;72.60;98666.09;4794854;29;20196;-93
2022/06/12 18:58:51;;;;;;;3.67;1.20;;;;;;;23.28;73.84;98665.91;4684409;30;20223;-93
2022/06/12 19:10:37;;;;;;;2.57;1.47;;;;;;;23.12;74.43;98671.31;4693912;30;20230;-92
2022/06/12 19:14:09;;;;;;;;;;;;;;;;;;;;;
2022/06/12 19:20:30;;;;;;;1.70;0.93;;;;;;;22.74;74.26;98664.03;4700923;30;20198;-93
2022/06/12 19:23:05;;;;;;;3.60;1.13;;;;;;;22.71;74.15;98661.69;4667361;30;20199;-94
2022/06/12 19:25:42;;;;;;;4.73;1.03;;;;;;;22.77;73.42;98661.88;4667087;30;20207;-92
2022/06/12 19:39:29;;;;;;;2.13;1.00;;;;;;;22.70;72.25;98689.41;4745663;30;20283;-93
2022/06/12 19:42:40;;;;;;;;;;;;;;;;;;;;;
2022/06/12 19:45:13;;;;;;;2.57;1.17;;;;;;;22.92;69.94;98686.06;4789086;29;20195;-93
2022/06/12 20:09:29;;;;;;;2.27;1.03;;;;;;;22.50;70.84;98683.53;4632822;31;20683;-93
2022/06/12 20:16:02;;;;;;;1.83;0.87;;;;;;;22.25;72.30;98672.00;4632875;31;20219;-93
2022/06/12 20:19:00;;;;;;;2.33;0.90;;;;;;;22.25;72.24;98672.00;4631980;30;20197;-92
2022/06/12 20:25:50;;;;;;;2.33;0.90;;;;;;;22.02;72.59;98670.97;4700009;30;20306;-92
2022/06/12 20:28:24;;;;;;;3.23;0.87;;;;;;;22.07;72.85;98668.63;4665544;30;20199;-92
2022/06/12 20:31:22;;;;;;;3.20;1.13;;;;;;;22.33;72.12;98677.34;4659223;30;20223;-92
2022/06/12 20:34:35;;;;;;;;;;;;;;;;;;;;;
2022/06/12 20:37:09;;;;;;;2.20;1.03;;;;;;;22.21;73.66;98681.34;4649443;30;20208;-91
2022/06/12 20:40:19;;;;;;;;;;;;;;;;;;;;;
2022/06/12 20:46:47;;;;;;;2.57;1.13;;;;;;;22.64;73.11;98673.03;4665245;30;20715;-91
2022/06/12 20:53:31;;;;;;;2.67;1.47;;;;;;;22.66;72.01;98686.25;4605789;31;20201;-93
2022/06/12 20:56:04;;;;;;;3.07;1.13;;;;;;;22.60;72.13;98692.22;4648236;30;20220;-90
2022/06/12 20:58:55;;;;;;;3.60;1.20;;;;;;;22.60;72.37;98701.06;4648506;30;20204;-94
2022/06/12 21:01:35;;;;;;;2.23;1.27;;;;;;;22.52;72.60;98692.22;4648975;30;20201;-92
2022/06/12 21:08:06;;;;;;;2.07;1.13;;;;;;;22.71;71.29;98691.06;4671941;30;20198;-92
2022/06/12 21:10:42;;;;;;;2.53;1.10;;;;;;;22.73;70.81;98694.41;4683132;30;20237;-92
2022/06/12 21:14:05;;;;;;;;;;;;;;;;;;;;;
2022/06/12 21:17:06;;;;;;;6.07;1.83;;;;;;;22.90;70.55;98693.41;4735043;30;20198;-91
2022/06/12 21:23:46;;;;;;;8.90;1.70;;;;;;;23.09;72.03;98711.75;4750483;30;20583;-95
2022/06/12 21:26:19;;;;;;;3.57;1.70;;;;;;;22.87;73.59;98696.41;4752429;30;20284;-91
2022/06/12 21:31:49;;;;;;;4.93;1.50;;;;;;;22.45;74.11;98705.41;4780518;30;20349;-90
2022/06/12 21:35:17;;;;;;;;;;;;;;;;;;;;;
2022/06/12 21:45:09;;;;;;;3.03;1.63;;;;;;;22.60;75.86;98706.41;4751843;30;20199;-91
2022/06/12 21:55:23;;;;;;;3.30;1.73;;;;;;;22.54;77.49;98706.22;4772075;30;20625;-91
2022/06/12 21:58:15;;;;;;;3.90;1.23;;;;;;;22.52;77.51;98702.91;4732978;30;20248;-94
2022/06/12 22:00:46;;;;;;;5.37;1.83;;;;;;;22.29;78.90;98701.88;4781535;30;20210;-91
2022/06/12 22:03:12;;;;;;;3.80;2.00;;;;;;;22.32;78.90;98691.72;4787332;30;20214;-90
2022/06/12 22:05:47;;;;;;;3.70;2.03;;;;;;;22.28;78.22;98695.69;4785728;29;20194;-92
2022/06/12 22:08:39;;;;;;;;;;;;;;;;;;;;;
2022/06/12 22:11:33;;;;;;;2.73;1.43;;;;;;;22.29;78.63;98692.03;4840472;29;20561;-94
2022/06/12 22:14:02;;;;;;;4.43;2.10;;;;;;;22.25;78.62;98700.56;4841905;29;20189;-89
2022/06/12 22:16:42;;;;;;;3.83;2.07;;;;;;;22.27;78.75;98690.53;4842921;29;20188;-90
2022/06/12 22:19:10;;;;;;;4.23;2.40;;;;;;;22.09;79.41;98693.31;4841668;29;20253;-89
2022/06/12 22:21:36;;;;;;;3.33;1.87;;;;;;;21.81;80.64;98690.06;4842515;29;20258;-88
2022/06/12 22:24:12;;;;;;;;;;;;;;;;;;;;;
2022/06/12 22:26:47;;;;;;;2.90;1.50;;;;;;;22.06;79.52;98692.84;4843055;29;20161;-92
2022/06/12 22:29:54;;;;;;;;;;;;;;;;;;;;;
2022/06/12 22:33:21;;;;;;;;;;;;;;;;;;;;;
2022/06/12 22:38:52;;;;;;;;;;;;;;;;;;;;;
2022/06/12 22:42:21;;;;;;;2.77;1.73;;;;;;;21.92;78.86;98678.28;4841557;29;20197;-91
2022/06/12 22:44:55;;;;;;;3.67;1.97;;;;;;;21.93;79.06;98682.63;4786573;30;20183;-91
2022/06/12 22:51:00;;;;;;;2.80;1.63;;;;;;;21.53;80.66;98669.97;4786255;30;20640;-92
2022/06/12 22:53:49;;;;;;;3.83;1.93;;;;;;;21.60;80.40;98675.47;4800199;29;20202;-90
2022/06/12 22:56:38;;;;;;;2.63;1.40;;;;;;;21.67;80.01;98676.53;4798819;29;20314;-90
2022/06/12 22:59:06;;;;;;;3.17;1.70;;;;;;;21.78;79.46;98673.53;4804982;29;20698;-91
2022/06/12 23:01:34;;;;;;;5.20;2.10;;;;;;;21.67;79.77;98680.00;4789326;29;20267;-90
2022/06/12 23:04:00;;;;;;;2.70;1.33;;;;;;;21.80;79.42;98680.38;4805554;29;20227;-93
2022/06/12 23:06:36;;;;;;;4.50;1.63;;;;;;;21.75;79.24;98677.34;4842231;29;20177;-90
2022/06/12 23:09:52;;;;;;;2.70;1.60;;;;;;;21.60;80.23;98688.81;4842139;29;20244;-91
2022/06/12 23:12:22;;;;;;;4.90;2.13;;;;;;;21.52;80.47;98678.09;4841802;29;20724;-92
2022/06/12 23:14:54;;;;;;;2.87;1.63;;;;;;;21.63;79.62;98677.81;4818327;29;20193;-91
2022/06/12 23:17:21;;;;;;;3.37;1.53;;;;;;;21.66;79.71;98680.16;4844621;29;20189;-90
2022/06/12 23:19:53;;;;;;;3.03;1.37;;;;;;;21.56;80.13;98680.31;4844810;29;20185;-89
2022/06/12 23:22:27;;;;;;;3.27;1.50;;;;;;;21.72;79.59;98679.53;4845011;29;20630;-91
2022/06/12 23:24:58;;;;;;;11.67;1.73;;;;;;;21.61;80.01;98677.16;4845808;29;20267;-91
2022/06/12 23:27:24;;;;;;;4.57;1.63;;;;;;;21.54;80.46;98681.47;4845771;29;20173;-92
2022/06/12 23:30:14;;;;;;;4.43;1.50;;;;;;;21.47;80.76;98681.25;4845621;29;20216;-91
2022/06/12 23:36:09;;;;;;;;;;;;;;;;;;;;;
2022/06/12 23:38:46;;;;;;;3.90;1.60;;;;;;;21.35;81.01;98659.41;4813086;29;20209;-91
2022/06/12 23:41:12;;;;;;;6.17;1.70;;;;;;;21.36;81.06;98665.53;4859677;29;20267;-91
2022/06/12 23:43:58;;;;;;;4.53;1.93;;;;;;;21.51;80.37;98668.44;4845470;29;20264;-91
2022/06/12 23:46:37;;;;;;;2.57;1.70;;;;;;;21.48;80.66;98668.78;4845738;29;20233;-91
2022/06/12 23:49:15;;;;;;;3.37;1.43;;;;;;;21.47;80.54;98662.59;4845398;29;20221;-91
2022/06/12 23:51:51;;;;;;;2.40;1.27;;;;;;;21.38;81.03;98652.91;4845208;29;20169;-92
2022/06/12 23:54:22;;;;;;;2.80;1.40;;;;;;;21.27;81.79;98655.84;4845594;29;20173;-90
2022/06/12 23:56:47;;;;;;;5.00;1.87;;;;;;;21.31;81.40;98650.03;4845031;29;20201;-92
2022/06/12 23:59:15;;;;;;;3.60;1.90;;;;;;;21.33;81.45;98653.38;4844060;29;20549;-91
